Sandia Park, NM (87047)

04:06 AM MST del 03 Marzo 2015 (GMT -0700)
Mike in Sandia Knolls | Change Station
CLOSE
Current Station
Stazione meteo personale
Location: Sandia Park, NM
Altitudine: 6693 ft
Stazioni meteo nelle vicinanze

Alt. 6693 ft 35.17 °N, 106.31 °W | Updated 11 minutes ago

Coperto
Coperto
35.0 °F
Sembra 35 °F
N
0.0
Vento Variabile Vento da ONO
Gusts 9.0 mph

Oggi
Massima -- | Minima -- °F
--% Possibilità di precip.
Ieri
Massima -- | Minima -- °F
Precip. -- in
6:32 AM 6:02 PM
Gobba a ponente, 95% visible
Pressione 29.82 in
Visibilità 10.0 miglia
Nuvole Alcuni 3000 ft
Coperto 5000 ft
Raffreddamento del vento 35 °F
Punto di rugiada 29 °F
Umidità 78%
Piovosità 0.01 in
Spessore del manto nevoso Non disponibile.
Raggi UV 0 fuori da 12
Polline 6.90 fuori da 12
Qualità dell'aria Non disponibile.
Flu Activity Non disponibile.
METAR KABQ 031052Z 23007KT 10SM FEW030 OVC050 06/M02 A2993 RMK AO2 SLP097 MTNS OBSC NE-SE T00561017

More Conditions Fewer Conditions

Pressione 29.82 in
Visibilità 10.0 miglia
Nuvole Alcuni 3000 ft
Coperto 5000 ft
Raffreddamento del vento 35 °F
Punto di rugiada 29 °F
Umidità 78%
Piovosità 0.01 in
Spessore del manto nevoso Non disponibile.
Raggi UV 0 fuori da 12
Polline 6.90 fuori da 12
Qualità dell'aria Non disponibile.
Flu Activity Non disponibile.
METAR KABQ 031052Z 23007KT 10SM FEW030 OVC050 06/M02 A2993 RMK AO2 SLP097 MTNS OBSC NE-SE T00561017

More Conditions Fewer Conditions

10-Day Weather Forecast

Almanac

Astronomia

Mar. 03, 2015 Alba Tramonto
Ora attuale
Crepuscolo civile
Crepuscolo nautico
Crepuscolo astronomico
Luna
Estensione della luce visibile
Lunghezza del giorno
Tomorrow will be .
, % of the Moon is Illuminated

Gli estremi di oggi

State Highs State Lows

Community

WunderPhotos

Upload Photos

1,802,087 foto caricate!

WunderBlogs® & News

Nearby

Qualità dell'aria

  Qualità dell'aria Indice AQ Inquinante
Not available.

Profondità neve

Stazione Profondità Altitudine

Attività sismica

Città  Distanza Mag. Data & Ora
Minimo Magnitudo Mostrato è 2.5.

Temperature delle acque costiere

Località Temperatura

Stazioni meteo nelle vicinanze